Time;durP1;ratioP1;P1;durP2;ratioP2;P2;SDS_P1;SDS_P2;PMS_P1;PMS_P2;Temp;Humidity;BMP_temperature;BMP_pressure;BME280_temperature;BME280_humidity;BME280_pressure;Samples;Min_cycle;Max_cycle;Signal;HPM_P1;HPM_P2
2021/03/17 00:00:02;;;;;;;8.60;4.23;;;;;;;4.93;54.57;102079.59;6159298;28;20238;-56
2021/03/17 00:03:41;;;;;;;4.80;2.47;;;;;;;4.86;54.73;102075.03;6169799;28;21965;-57
2021/03/17 00:07:20;;;;;;;6.10;3.00;;;;;;;4.67;54.54;102076.13;6159359;28;20253;-56
2021/03/17 00:10:59;;;;;;;7.40;2.93;;;;;;;4.67;55.47;102080.38;6166220;28;20238;-57
2021/03/17 00:14:37;;;;;;;6.30;2.30;;;;;;;4.84;55.46;102074.09;6171167;28;20608;-58
2021/03/17 00:18:17;;;;;;;7.53;3.40;;;;;;;4.95;54.82;102089.09;6169707;28;20250;-57
2021/03/17 00:21:56;;;;;;;7.33;3.57;;;;;;;4.86;55.20;102082.78;6170412;28;20242;-57
2021/03/17 00:25:37;;;;;;;5.40;2.00;;;;;;;4.68;55.46;102087.31;6172974;28;20226;-57
2021/03/17 00:29:15;;;;;;;7.40;3.10;;;;;;;4.86;54.85;102089.66;6150601;28;20234;-58
2021/03/17 00:32:55;;;;;;;7.30;3.80;;;;;;;4.82;55.50;102101.56;6166411;28;20227;-57
2021/03/17 00:36:35;;;;;;;8.27;2.17;;;;;;;4.68;55.85;102092.47;6155497;28;20495;-58
2021/03/17 00:40:14;;;;;;;5.20;2.03;;;;;;;4.66;55.88;102087.25;6170624;28;20552;-57
2021/03/17 00:43:53;;;;;;;7.03;2.37;;;;;;;4.69;56.34;102096.78;6165793;28;20231;-55
2021/03/17 00:47:32;;;;;;;4.90;3.40;;;;;;;4.63;56.23;102084.53;6167272;28;20230;-58
2021/03/17 00:50:53;;;;;;;8.80;2.43;;;;;;;4.53;56.81;102083.34;6154572;28;20267;-57
2021/03/17 00:54:22;;;;;;;5.73;2.07;;;;;;;4.57;56.37;102093.78;6167117;28;20234;-58
2021/03/17 00:57:52;;;;;;;3.87;2.43;;;;;;;4.60;56.46;102087.03;6155932;28;20608;-58
2021/03/17 01:01:12;;;;;;;6.93;2.67;;;;;;;4.61;57.03;102087.91;6144686;28;20647;-52
2021/03/17 01:04:33;;;;;;;7.47;3.23;;;;;;;4.35;57.78;102095.59;6162209;28;20664;-55
2021/03/17 01:07:53;;;;;;;5.50;1.90;;;;;;;4.54;56.78;102086.81;6170511;28;20231;-56
2021/03/17 01:11:14;;;;;;;7.33;2.20;;;;;;;4.49;57.31;102094.38;6163621;28;20286;-57
2021/03/17 01:14:36;;;;;;;3.97;2.20;;;;;;;4.58;57.62;102091.25;6159660;28;20605;-55
2021/03/17 01:17:56;;;;;;;4.87;2.17;;;;;;;4.51;57.38;102087.56;6154751;28;20246;-55
2021/03/17 01:21:16;;;;;;;8.10;3.00;;;;;;;4.56;57.05;102084.31;6162711;28;20577;-55
2021/03/17 01:24:37;;;;;;;4.27;2.03;;;;;;;4.67;57.38;102101.94;6147242;28;20235;-56
2021/03/17 01:28:02;;;;;;;3.77;2.27;;;;;;;4.70;56.81;102090.81;6167900;28;20242;-56
2021/03/17 01:31:23;;;;;;;8.60;3.67;;;;;;;4.58;56.92;102092.97;6167661;28;20665;-56
2021/03/17 01:34:43;;;;;;;4.03;1.73;;;;;;;4.59;57.63;102081.81;6141977;28;20234;-56
2021/03/17 01:38:04;;;;;;;5.73;2.20;;;;;;;4.60;57.12;102099.06;6169060;28;20513;-54
2021/03/17 01:41:25;;;;;;;10.37;2.20;;;;;;;4.37;58.22;102098.22;6164604;28;20230;-55
2021/03/17 01:44:46;;;;;;;8.03;2.03;;;;;;;4.61;56.92;102098.22;6150722;28;20230;-57
2021/03/17 01:48:09;;;;;;;5.60;2.63;;;;;;;4.39;57.99;102099.16;6166625;28;20231;-56
2021/03/17 01:51:29;;;;;;;5.00;1.87;;;;;;;4.41;57.71;102098.38;6161599;28;20230;-55
2021/03/17 01:54:51;;;;;;;4.57;1.77;;;;;;;4.41;58.25;102094.94;6168170;28;20317;-58
2021/03/17 01:58:12;;;;;;;5.37;1.80;;;;;;;4.44;57.95;102090.78;6163127;28;20230;-56
2021/03/17 02:01:35;;;;;;;5.27;1.90;;;;;;;4.51;57.93;102085.00;6163806;28;20234;-59
2021/03/17 02:04:55;;;;;;;16.80;3.47;;;;;;;4.23;58.53;102093.44;6168670;28;20230;-56
2021/03/17 02:08:18;;;;;;;9.90;2.20;;;;;;;4.34;58.12;102093.81;6166286;28;20227;-57
2021/03/17 02:11:43;;;;;;;11.80;2.57;;;;;;;4.28;58.47;102086.72;6166715;28;20246;-57
2021/03/17 02:15:11;;;;;;;8.87;2.00;;;;;;;4.33;58.29;102085.22;6167368;28;20238;-56
2021/03/17 02:18:43;;;;;;;4.77;2.30;;;;;;;4.35;58.20;102082.69;6166125;28;20695;-54
2021/03/17 02:22:28;;;;;;;8.67;2.90;;;;;;;4.34;58.86;102083.50;6156570;28;20581;-57
2021/03/17 02:26:08;;;;;;;8.00;1.90;;;;;;;4.32;58.97;102077.41;6167621;28;20230;-59
2021/03/17 02:30:04;;;;;;;6.53;2.50;;;;;;;4.33;59.24;102080.06;6165623;28;20242;-57
2021/03/17 02:33:38;;;;;;;3.73;2.33;;;;;;;4.23;58.65;102071.94;6141886;28;20261;-57
2021/03/17 02:37:02;;;;;;;7.13;3.13;;;;;;;4.21;59.73;102068.41;6168055;28;20241;-57
2021/03/17 02:40:30;;;;;;;5.50;1.93;;;;;;;4.03;60.09;102074.66;6166495;28;20234;-57
2021/03/17 02:43:55;;;;;;;4.80;1.60;;;;;;;4.02;59.34;102072.88;6167192;28;20222;-55
2021/03/17 02:47:16;;;;;;;8.40;2.37;;;;;;;4.30;59.05;102068.75;6159402;28;20257;-58
2021/03/17 02:50:43;;;;;;;6.77;3.03;;;;;;;4.22;59.12;102070.16;6152649;28;20247;-55
2021/03/17 02:54:07;;;;;;;11.90;3.50;;;;;;;4.10;59.27;102076.63;6169025;28;20257;-57
2021/03/17 02:57:31;;;;;;;5.40;2.10;;;;;;;4.12;59.87;102064.66;6159716;28;20264;-57
2021/03/17 03:00:53;;;;;;;9.63;2.77;;;;;;;4.39;59.14;102069.09;6159351;28;20301;-55
2021/03/17 03:04:15;;;;;;;7.97;2.67;;;;;;;4.40;58.49;102067.38;6163951;28;20235;-54
2021/03/17 03:07:38;;;;;;;5.00;1.73;;;;;;;4.47;58.72;102072.81;6163313;28;20231;-56
2021/03/17 03:11:00;;;;;;;13.37;4.13;;;;;;;4.33;59.23;102079.19;6159655;28;20233;-56
2021/03/17 03:14:22;;;;;;;4.47;2.17;;;;;;;4.31;58.90;102073.09;6166361;28;20230;-56
2021/03/17 03:17:44;;;;;;;5.97;2.17;;;;;;;4.40;59.08;102077.69;6165277;28;20306;-56
2021/03/17 03:21:07;;;;;;;5.07;2.13;;;;;;;4.17;59.89;102082.00;6155600;28;20497;-57
2021/03/17 03:24:29;;;;;;;9.13;2.43;;;;;;;4.23;59.71;102087.41;6161927;28;20603;-56
2021/03/17 03:27:50;;;;;;;6.67;1.97;;;;;;;4.23;59.73;102093.44;6165801;28;20238;-57
2021/03/17 03:31:11;;;;;;;6.93;2.43;;;;;;;4.15;60.01;102084.53;6161487;28;20246;-54
2021/03/17 03:34:32;;;;;;;5.77;2.43;;;;;;;3.99;59.94;102084.75;6155480;28;20234;-55
2021/03/17 03:37:53;;;;;;;6.20;2.33;;;;;;;4.09;60.35;102087.75;6172516;28;20841;-57
2021/03/17 03:41:15;;;;;;;5.17;2.90;;;;;;;4.14;60.17;102088.78;6172470;28;20499;-56
2021/03/17 03:44:35;;;;;;;9.00;4.17;;;;;;;3.91;60.64;102089.63;6167657;28;20257;-58
2021/03/17 03:47:56;;;;;;;7.63;2.83;;;;;;;4.02;60.27;102088.34;6170256;28;20246;-55
2021/03/17 03:51:19;;;;;;;4.37;2.23;;;;;;;4.08;60.25;102082.53;6163853;28;20622;-56
2021/03/17 03:54:43;;;;;;;8.87;2.80;;;;;;;4.06;60.64;102089.34;6171778;28;20238;-55
2021/03/17 03:58:09;;;;;;;11.00;3.00;;;;;;;4.09;60.48;102086.88;6168960;28;20238;-57
2021/03/17 04:01:37;;;;;;;4.37;2.37;;;;;;;4.06;60.66;102095.38;6168770;28;20288;-55
2021/03/17 04:05:00;;;;;;;8.10;2.23;;;;;;;4.01;60.85;102098.59;6170927;28;20242;-54
2021/03/17 04:08:25;;;;;;;10.27;2.87;;;;;;;3.90;61.23;102103.34;6170954;28;20620;-57
2021/03/17 04:11:45;;;;;;;8.37;3.47;;;;;;;4.02;60.47;102100.38;6164126;28;20266;-56
2021/03/17 04:15:09;;;;;;;5.77;2.30;;;;;;;3.82;62.00;102109.88;6170596;28;20317;-57
2021/03/17 04:18:33;;;;;;;4.90;2.27;;;;;;;3.87;61.43;102113.53;6168128;28;20320;-57
2021/03/17 04:21:56;;;;;;;7.50;3.60;;;;;;;3.82;61.47;102112.47;6155397;28;20230;-56
2021/03/17 04:25:19;;;;;;;5.97;2.20;;;;;;;3.88;60.76;102120.44;6170426;28;20264;-56
2021/03/17 04:28:41;;;;;;;5.93;2.23;;;;;;;3.87;61.49;102118.69;6163542;28;20854;-57
2021/03/17 04:32:04;;;;;;;33.03;16.23;;;;;;;3.95;61.50;102117.28;6166360;28;20234;-57
2021/03/17 04:35:25;;;;;;;36.07;28.77;;;;;;;3.96;61.26;102119.03;6168762;28;20231;-54
2021/03/17 04:38:47;;;;;;;57.47;48.27;;;;;;;3.89;61.92;102123.06;6170321;28;20230;-56
2021/03/17 04:42:08;;;;;;;16.83;14.13;;;;;;;3.98;61.01;102122.56;6169673;28;20253;-57
2021/03/17 04:45:28;;;;;;;6.30;3.27;;;;;;;3.95;61.06;102117.28;6159838;28;20522;-54
2021/03/17 04:48:51;;;;;;;4.90;2.67;;;;;;;3.84;61.34;102116.88;6167299;28;20230;-57
2021/03/17 04:52:13;;;;;;;5.10;2.60;;;;;;;3.96;61.33;102121.63;6169341;28;20234;-58
2021/03/17 04:55:33;;;;;;;3.97;2.67;;;;;;;3.88;61.18;102120.44;6158129;28;20239;-53
2021/03/17 04:58:54;;;;;;;6.90;2.37;;;;;;;4.01;60.84;102122.66;6168938;28;20240;-57
2021/03/17 05:02:19;;;;;;;6.77;3.80;;;;;;;3.78;61.65;102119.22;6167956;28;20519;-56
2021/03/17 05:05:43;;;;;;;7.93;3.27;;;;;;;3.86;61.57;102116.94;6167813;28;20325;-57
2021/03/17 05:09:05;;;;;;;4.97;2.03;;;;;;;3.96;61.25;102123.34;6169431;28;20336;-56
2021/03/17 05:12:27;;;;;;;5.10;2.50;;;;;;;3.93;61.40;102129.22;6154147;28;20245;-57
2021/03/17 05:15:48;;;;;;;6.23;2.47;;;;;;;3.89;61.34;102128.22;6166972;28;20254;-55
2021/03/17 05:19:09;;;;;;;12.57;9.30;;;;;;;3.99;60.74;102134.63;6169239;28;20588;-55
2021/03/17 05:22:31;;;;;;;36.63;30.90;;;;;;;3.91;61.59;102130.88;6163938;28;20230;-55
2021/03/17 05:25:53;;;;;;;40.00;35.37;;;;;;;3.81;61.87;102128.75;6155620;28;20237;-55
2021/03/17 05:29:16;;;;;;;14.80;7.50;;;;;;;3.82;61.42;102130.50;6162488;28;20231;-57
2021/03/17 05:32:40;;;;;;;19.40;12.90;;;;;;;3.87;61.34;102129.00;6161183;28;20234;-54
2021/03/17 05:36:00;;;;;;;16.13;13.13;;;;;;;3.88;62.73;102141.06;6166080;28;20234;-57
2021/03/17 05:39:21;;;;;;;15.80;12.20;;;;;;;3.92;61.96;102141.25;6167438;28;20521;-58
2021/03/17 05:42:43;;;;;;;10.37;5.43;;;;;;;4.04;61.69;102152.84;6163660;28;20604;-57
2021/03/17 05:46:04;;;;;;;7.30;3.90;;;;;;;3.82;62.01;102139.13;6169107;28;20329;-55
2021/03/17 05:49:25;;;;;;;11.97;4.27;;;;;;;3.81;62.36;102141.63;6165541;28;20233;-58
2021/03/17 05:52:45;;;;;;;8.50;4.63;;;;;;;3.98;61.24;102153.50;6163376;28;20325;-57
2021/03/17 05:56:07;;;;;;;6.17;2.70;;;;;;;3.84;61.97;102146.91;6166056;28;20234;-55
2021/03/17 05:59:30;;;;;;;7.27;3.03;;;;;;;3.95;61.17;102143.06;6152363;28;20238;-55
2021/03/17 06:02:51;;;;;;;8.27;3.53;;;;;;;4.00;61.69;102145.81;6163358;28;20227;-57
2021/03/17 06:06:14;;;;;;;7.80;3.63;;;;;;;3.93;61.99;102150.72;6168084;28;20235;-54
2021/03/17 06:09:34;;;;;;;14.20;9.83;;;;;;;4.07;62.08;102159.03;6166512;28;20227;-58
2021/03/17 06:13:06;;;;;;;15.93;13.77;;;;;;;4.21;61.59;102163.84;6163854;28;20259;-56
2021/03/17 06:16:28;;;;;;;11.80;6.87;;;;;;;4.35;61.70;102160.06;6167999;28;20261;-57
2021/03/17 06:19:53;;;;;;;8.47;2.93;;;;;;;4.31;61.23;102163.34;6163577;28;20859;-54
2021/03/17 06:23:14;;;;;;;7.20;3.40;;;;;;;4.36;60.83;102172.13;6167093;28;20757;-57
2021/03/17 06:26:35;;;;;;;8.40;3.40;;;;;;;4.31;60.96;102164.22;6168230;28;20235;-54
2021/03/17 06:29:57;;;;;;;5.93;4.73;;;;;;;4.19;61.34;102163.78;6158289;28;20247;-54
2021/03/17 06:33:17;;;;;;;7.57;3.30;;;;;;;4.22;61.30;102168.16;6166070;28;20234;-56
2021/03/17 06:36:47;;;;;;;6.50;3.43;;;;;;;4.33;61.40;102172.91;6159916;28;20667;-57
2021/03/17 06:40:21;;;;;;;12.30;4.63;;;;;;;4.43;61.17;102171.53;6153045;28;20616;-52
2021/03/17 06:43:43;;;;;;;7.37;4.00;;;;;;;4.56;60.34;102162.56;6160826;28;20234;-57
2021/03/17 06:47:21;;;;;;;4.47;3.40;;;;;;;4.43;61.07;102174.13;6164693;28;20832;-54
2021/03/17 06:50:41;;;;;;;5.23;2.97;;;;;;;4.52;60.38;102168.44;6161119;28;20857;-59
2021/03/17 06:54:03;;;;;;;6.73;3.10;;;;;;;4.24;60.78;102171.66;6166155;28;20241;-57
2021/03/17 06:57:27;;;;;;;7.33;3.87;;;;;;;4.42;61.67;102172.38;6163177;28;20226;-54
2021/03/17 07:00:47;;;;;;;8.30;3.43;;;;;;;4.61;60.59;102168.75;6162815;28;20234;-57
2021/03/17 07:04:10;;;;;;;8.30;3.47;;;;;;;4.70;60.11;102173.41;6159025;28;20257;-54
2021/03/17 07:07:46;;;;;;;9.00;3.67;;;;;;;4.98;59.66;102170.09;6164362;28;20230;-58
2021/03/17 07:11:06;;;;;;;7.03;3.90;;;;;;;5.19;59.70;102180.31;6158070;28;20234;-57
2021/03/17 07:14:27;;;;;;;7.93;3.67;;;;;;;5.32;59.43;102187.66;6165143;28;20226;-55
2021/03/17 07:17:47;;;;;;;7.97;5.13;;;;;;;5.72;58.25;102177.78;6164216;28;20242;-55
2021/03/17 07:21:09;;;;;;;12.63;5.07;;;;;;;5.62;57.93;102180.88;6164515;28;20234;-56
2021/03/17 07:24:30;;;;;;;9.20;4.40;;;;;;;5.63;58.04;102180.06;6155108;28;20241;-57
2021/03/17 07:27:56;;;;;;;37.70;27.37;;;;;;;5.65;58.56;102191.34;6169060;28;20227;-55
2021/03/17 07:31:18;;;;;;;11.93;6.83;;;;;;;5.63;58.28;102193.00;6161283;28;20234;-55
2021/03/17 07:34:39;;;;;;;9.83;5.20;;;;;;;5.52;58.99;102185.78;6169451;28;20469;-54
2021/03/17 07:38:05;;;;;;;8.90;4.63;;;;;;;5.54;59.19;102198.72;6158941;28;20242;-57
2021/03/17 07:41:28;;;;;;;7.80;3.90;;;;;;;5.67;59.41;102190.56;6168811;28;20651;-58
2021/03/17 07:44:49;;;;;;;7.37;4.17;;;;;;;5.53;59.07;102199.56;6166845;28;20230;-58
2021/03/17 07:48:12;;;;;;;8.67;4.20;;;;;;;5.84;58.99;102209.22;6160561;28;20235;-57
2021/03/17 07:51:36;;;;;;;16.83;4.27;;;;;;;5.75;58.96;102205.44;6149347;28;20242;-55
2021/03/17 07:55:05;;;;;;;7.70;5.00;;;;;;;5.74;59.39;102204.56;6162638;28;20624;-57
2021/03/17 07:58:26;;;;;;;11.63;4.97;;;;;;;5.94;58.76;102200.03;6154978;28;20235;-55
2021/03/17 08:01:46;;;;;;;10.10;5.03;;;;;;;5.78;59.43;102218.44;6162149;28;20234;-57
2021/03/17 08:05:09;;;;;;;5.93;4.63;;;;;;;5.38;60.20;102222.28;6159225;28;20671;-56
2021/03/17 08:08:29;;;;;;;7.23;4.73;;;;;;;5.73;59.92;102216.59;6167797;28;20245;-55
2021/03/17 08:11:52;;;;;;;7.17;4.70;;;;;;;5.47;60.64;102222.63;6164934;28;20498;-58
2021/03/17 08:15:15;;;;;;;10.57;5.53;;;;;;;5.86;60.12;102223.06;6164028;28;20251;-54
2021/03/17 08:18:40;;;;;;;14.70;10.03;;;;;;;6.21;58.61;102227.66;6162176;28;20234;-57
2021/03/17 08:22:03;;;;;;;5.67;4.83;;;;;;;6.11;58.46;102227.34;6159001;28;20234;-56
2021/03/17 08:25:37;;;;;;;9.33;5.57;;;;;;;6.05;58.49;102227.16;6155875;28;20321;-57
2021/03/17 08:28:59;;;;;;;9.60;5.60;;;;;;;5.82;59.24;102233.25;6162755;28;20230;-57
2021/03/17 08:32:20;;;;;;;13.83;6.20;;;;;;;5.98;59.35;102243.31;6168040;28;20632;-57
2021/03/17 08:36:02;;;;;;;9.97;5.47;;;;;;;6.39;58.32;102240.28;6164794;28;20242;-57
2021/03/17 08:39:43;;;;;;;11.17;5.20;;;;;;;6.62;58.66;102226.31;6165391;28;20230;-56
2021/03/17 08:43:37;;;;;;;9.47;5.37;;;;;;;6.47;58.56;102231.91;6169659;28;20987;-55
2021/03/17 08:47:24;;;;;;;12.87;6.13;;;;;;;6.08;59.83;102229.81;6162917;28;20230;-54
2021/03/17 08:50:48;;;;;;;14.93;6.77;;;;;;;6.28;58.91;102240.81;6136305;28;20230;-56
2021/03/17 08:54:45;;;;;;;8.23;6.83;;;;;;;6.72;58.24;102243.00;6160528;28;20238;-55
2021/03/17 08:58:07;;;;;;;9.93;5.90;;;;;;;7.22;56.25;102248.75;6166737;28;20496;-52
2021/03/17 09:01:33;;;;;;;14.97;6.07;;;;;;;7.43;55.63;102245.00;6166092;28;20238;-53
2021/03/17 09:04:56;;;;;;;15.57;7.23;;;;;;;7.39;55.62;102249.22;6164897;28;20254;-56
2021/03/17 09:08:17;;;;;;;10.23;5.80;;;;;;;7.65;55.08;102255.06;6170131;28;20261;-56
2021/03/17 09:11:59;;;;;;;9.33;6.50;;;;;;;8.34;53.08;102258.50;6163334;28;20234;-57
2021/03/17 09:15:20;;;;;;;11.27;5.70;;;;;;;8.56;52.51;102259.00;6160207;28;20231;-55
2021/03/17 09:18:41;;;;;;;8.53;7.13;;;;;;;8.89;52.06;102263.19;6158167;28;20231;-56
2021/03/17 09:22:22;;;;;;;13.70;6.80;;;;;;;9.14;51.18;102255.03;6162064;28;20238;-56
2021/03/17 09:25:46;;;;;;;12.70;5.90;;;;;;;9.37;50.58;102252.00;6165034;28;20239;-57
2021/03/17 09:29:08;;;;;;;14.37;6.07;;;;;;;8.93;50.45;102259.81;6164168;28;20243;-57
2021/03/17 09:32:28;;;;;;;10.73;6.20;;;;;;;9.12;50.75;102254.13;6163588;28;20230;-57
2021/03/17 09:35:52;;;;;;;13.37;9.37;;;;;;;9.17;50.92;102259.41;6159389;28;20230;-56
2021/03/17 09:39:17;;;;;;;8.80;6.40;;;;;;;9.51;50.05;102266.13;6161790;28;20234;-58
2021/03/17 09:42:38;;;;;;;11.60;7.93;;;;;;;9.79;49.89;102261.41;6158560;28;20227;-60
2021/03/17 09:45:59;;;;;;;9.23;6.17;;;;;;;10.15;48.87;102268.09;6146827;28;20234;-59
2021/03/17 09:49:22;;;;;;;6.87;5.57;;;;;;;9.31;49.18;102273.56;6158276;28;20737;-59
2021/03/17 09:52:44;;;;;;;14.93;7.03;;;;;;;8.47;52.42;102275.25;6164475;28;20283;-57
2021/03/17 09:56:05;;;;;;;10.40;6.37;;;;;;;9.24;50.63;102282.97;6161154;28;20230;-57
2021/03/17 09:59:27;;;;;;;10.07;7.23;;;;;;;9.63;48.95;102276.78;6163660;28;20325;-57
2021/03/17 10:02:48;;;;;;;15.07;8.97;;;;;;;10.22;49.73;102282.97;6162875;28;20253;-57
2021/03/17 10:06:09;;;;;;;11.47;7.50;;;;;;;10.71;47.94;102283.72;6162224;28;20234;-58
2021/03/17 10:09:33;;;;;;;10.57;6.67;;;;;;;10.54;46.98;102280.00;6158593;28;20234;-58
2021/03/17 10:12:54;;;;;;;13.73;7.63;;;;;;;10.15;48.14;102281.97;6158934;28;20239;-58
2021/03/17 10:16:15;;;;;;;9.10;6.13;;;;;;;9.80;49.10;102294.41;6163695;28;20235;-56
2021/03/17 10:19:40;;;;;;;8.70;5.20;;;;;;;10.33;48.90;102293.56;6167561;28;20235;-58
2021/03/17 10:23:00;;;;;;;9.40;6.60;;;;;;;11.08;46.83;102293.75;6161218;28;20246;-55
2021/03/17 10:26:21;;;;;;;6.67;5.20;;;;;;;10.89;46.72;102297.84;6170344;28;20231;-58
2021/03/17 10:29:44;;;;;;;10.40;6.23;;;;;;;11.21;46.00;102306.97;6151208;28;20239;-60
2021/03/17 10:33:09;;;;;;;9.70;5.73;;;;;;;11.18;46.20;102300.81;6164365;28;20270;-59
2021/03/17 10:36:38;;;;;;;8.00;5.87;;;;;;;11.38;45.65;102301.03;6149400;28;20333;-59
2021/03/17 10:40:06;;;;;;;9.97;5.63;;;;;;;12.07;44.68;102280.88;6146146;28;20221;-57
2021/03/17 10:43:31;;;;;;;7.27;5.60;;;;;;;12.37;44.14;102289.81;6163142;28;20234;-57
2021/03/17 10:47:11;;;;;;;9.43;5.90;;;;;;;13.70;40.70;102286.03;6167710;28;20262;-57
2021/03/17 10:50:34;;;;;;;7.73;5.43;;;;;;;16.56;34.68;102286.56;6158278;28;20504;-55
2021/03/17 10:53:54;;;;;;;6.57;5.83;;;;;;;18.21;31.73;102275.47;6161991;28;20234;-59
2021/03/17 10:57:20;;;;;;;7.83;4.90;;;;;;;22.28;26.32;102280.81;6160844;28;20237;-57
2021/03/17 11:00:42;;;;;;;6.35;4.68;;;;;;;24.93;22.58;102281.63;6158382;28;20227;-58
2021/03/17 11:04:07;;;;;;;8.52;4.95;;;;;;;25.60;21.48;102274.88;6160153;28;20238;-59
2021/03/17 11:07:28;;;;;;;5.18;4.32;;;;;;;25.77;21.13;102271.38;6159717;28;20615;-60
2021/03/17 11:11:03;;;;;;;7.05;4.82;;;;;;;26.95;19.43;102266.13;6166161;28;20234;-60
2021/03/17 11:14:34;;;;;;;6.57;4.90;;;;;;;27.49;19.32;102274.66;6160801;28;20816;-61
2021/03/17 11:17:56;;;;;;;8.50;4.90;;;;;;;26.46;19.54;102266.97;6155120;28;20246;-56
2021/03/17 11:21:22;;;;;;;8.15;5.20;;;;;;;26.91;19.44;102265.47;6161862;28;20542;-60
2021/03/17 11:24:43;;;;;;;16.88;4.90;;;;;;;29.95;16.62;102256.63;6163084;28;20230;-65
2021/03/17 11:28:12;;;;;;;6.30;4.75;;;;;;;31.30;16.01;102264.06;6157984;28;20253;-68
2021/03/17 11:31:34;;;;;;;4.72;4.22;;;;;;;30.40;16.20;102259.75;6156761;28;20376;-68
2021/03/17 11:34:55;;;;;;;7.93;4.68;;;;;;;31.13;14.67;102259.94;6161215;28;20226;-67
2021/03/17 11:38:18;;;;;;;7.93;6.53;;;;;;;28.38;17.04;102258.69;6158882;28;20238;-68
2021/03/17 11:41:40;;;;;;;10.68;9.57;;;;;;;28.46;16.98;102261.75;6162259;28;20219;-68
2021/03/17 11:45:01;;;;;;;7.45;6.55;;;;;;;24.59;20.49;102269.00;6177258;28;20250;-60
2021/03/17 11:48:22;;;;;;;7.32;4.95;;;;;;;20.46;24.84;102275.75;6162450;28;20421;-58
2021/03/17 11:51:44;;;;;;;5.72;4.97;;;;;;;21.13;23.79;102277.38;6152712;28;20241;-61
2021/03/17 11:55:06;;;;;;;7.00;4.38;;;;;;;26.12;18.99;102264.25;6161752;28;20349;-57
2021/03/17 11:58:27;;;;;;;4.88;3.88;;;;;;;28.11;16.14;102263.03;6172866;28;20681;-57
2021/03/17 12:01:47;;;;;;;4.05;3.42;;;;;;;30.45;14.84;102253.19;6162420;28;20223;-60
2021/03/17 12:05:09;;;;;;;5.35;3.20;;;;;;;27.00;16.99;102269.41;6165021;28;20242;-61
2021/03/17 12:08:30;;;;;;;4.65;3.28;;;;;;;22.04;21.75;102262.13;6162445;28;20230;-60
2021/03/17 12:11:52;;;;;;;4.20;3.80;;;;;;;25.03;19.26;102268.72;6175881;28;20539;-61
2021/03/17 12:15:16;;;;;;;13.65;12.13;;;;;;;29.49;15.40;102265.06;6169661;28;20262;-60
2021/03/17 12:18:37;;;;;;;4.28;3.63;;;;;;;30.72;13.96;102263.81;6163729;28;20226;-61
2021/03/17 12:21:57;;;;;;;4.32;3.47;;;;;;;25.67;18.04;102268.31;6167631;28;20234;-60
2021/03/17 12:25:18;;;;;;;4.43;4.03;;;;;;;23.89;20.31;102269.31;6168654;28;20235;-59
2021/03/17 12:28:40;;;;;;;3.80;3.50;;;;;;;27.45;16.77;102265.09;6146540;28;20266;-57
2021/03/17 12:32:00;;;;;;;5.22;3.05;;;;;;;25.49;17.61;102261.22;6164663;28;20621;-59
2021/03/17 12:35:23;;;;;;;4.07;3.33;;;;;;;27.68;15.65;102263.75;6162881;28;20234;-57
2021/03/17 12:38:44;;;;;;;4.85;3.67;;;;;;;26.15;17.28;102259.72;6166962;28;20231;-59
2021/03/17 12:42:05;;;;;;;3.13;2.47;;;;;;;28.49;13.52;102260.69;6167059;28;20226;-61
2021/03/17 12:45:29;;;;;;;3.75;2.70;;;;;;;29.57;14.05;102254.66;6138806;28;20234;-60
2021/03/17 12:48:49;;;;;;;4.00;3.03;;;;;;;30.88;12.39;102268.91;6167321;28;20226;-59
2021/03/17 12:52:10;;;;;;;5.50;4.50;;;;;;;29.62;13.26;102268.66;6168689;28;20250;-59
2021/03/17 12:55:31;;;;;;;7.38;6.88;;;;;;;22.70;19.08;102262.47;6162981;28;20309;-59
2021/03/17 12:58:51;;;;;;;5.40;3.53;;;;;;;19.34;22.96;102266.19;6163574;28;20218;-59
2021/03/17 13:02:12;;;;;;;4.22;2.92;;;;;;;16.97;26.19;102275.56;6162819;28;20226;-59
2021/03/17 13:05:33;;;;;;;3.28;2.88;;;;;;;16.85;27.29;102278.34;6170074;28;20246;-56
2021/03/17 13:08:54;;;;;;;3.10;2.83;;;;;;;16.09;27.98;102273.84;6159352;28;20557;-60
2021/03/17 13:12:14;;;;;;;3.47;3.00;;;;;;;16.03;29.28;102278.28;6165945;28;20353;-58
2021/03/17 13:15:35;;;;;;;4.17;2.97;;;;;;;15.08;29.27;102291.13;6165334;28;20230;-57
2021/03/17 13:18:56;;;;;;;3.50;2.53;;;;;;;14.91;29.98;102287.69;6161432;28;20230;-57
2021/03/17 13:22:17;;;;;;;2.33;2.13;;;;;;;14.62;29.98;102286.03;6161176;28;20230;-58
2021/03/17 13:25:38;;;;;;;5.43;3.00;;;;;;;14.64;40.67;102292.13;6165206;28;20277;-56
2021/03/17 13:28:59;;;;;;;2.73;2.47;;;;;;;15.18;34.66;102291.06;6152555;28;20234;-57
2021/03/17 13:32:19;;;;;;;2.50;2.30;;;;;;;14.57;30.86;102293.00;6161642;28;20223;-59
2021/03/17 13:35:41;;;;;;;5.27;2.73;;;;;;;14.77;35.62;102293.84;6156223;28;20255;-57
2021/03/17 13:39:05;;;;;;;4.07;2.77;;;;;;;14.35;33.09;102297.41;6165414;28;20239;-57
2021/03/17 13:42:25;;;;;;;3.17;2.87;;;;;;;14.77;31.09;102298.19;6142128;28;20231;-56
2021/03/17 13:45:46;;;;;;;2.87;2.57;;;;;;;15.92;28.94;102308.13;6164298;28;20237;-55
2021/03/17 13:49:07;;;;;;;3.07;2.77;;;;;;;14.37;29.99;102317.47;6165266;28;20234;-57
2021/03/17 13:52:28;;;;;;;5.53;3.20;;;;;;;12.92;32.94;102336.34;6143687;28;20250;-58
2021/03/17 13:55:49;;;;;;;4.63;3.93;;;;;;;11.53;37.73;102350.78;6163426;28;20250;-56
2021/03/17 13:59:09;;;;;;;6.43;3.03;;;;;;;10.78;40.26;102358.53;6148712;28;20230;-57
2021/03/17 14:02:30;;;;;;;4.87;2.83;;;;;;;10.76;40.59;102365.44;6157486;28;20234;-57
2021/03/17 14:05:50;;;;;;;4.10;2.50;;;;;;;10.68;41.03;102366.16;6157467;28;20262;-59
2021/03/17 14:09:12;;;;;;;2.33;1.80;;;;;;;10.82;40.08;102385.50;6177315;28;20238;-57
2021/03/17 14:12:32;;;;;;;2.77;2.17;;;;;;;10.67;40.64;102385.28;6160096;28;20238;-54
2021/03/17 14:15:53;;;;;;;3.03;2.10;;;;;;;10.33;41.28;102403.84;6166120;28;20250;-54
2021/03/17 14:19:13;;;;;;;3.03;2.30;;;;;;;10.28;42.44;102418.47;6163804;28;20238;-58
2021/03/17 14:22:34;;;;;;;2.47;2.27;;;;;;;9.99;43.43;102421.41;6164196;28;20230;-56
2021/03/17 14:25:55;;;;;;;1.90;1.80;;;;;;;10.33;42.79;102411.66;6158530;28;20253;-59
2021/03/17 14:29:16;;;;;;;2.73;1.93;;;;;;;10.78;42.20;102404.56;6162310;28;20277;-59
2021/03/17 14:32:37;;;;;;;2.53;2.33;;;;;;;10.84;41.36;102402.91;6159160;28;20230;-59
2021/03/17 14:35:57;;;;;;;2.50;2.23;;;;;;;11.07;40.90;102405.00;6148452;28;20257;-59
2021/03/17 14:39:17;;;;;;;1.83;1.73;;;;;;;11.35;41.07;102407.97;6165447;28;20242;-55
2021/03/17 14:42:39;;;;;;;2.47;2.27;;;;;;;12.18;39.11;102411.56;6162147;28;20242;-58
2021/03/17 14:46:00;;;;;;;5.20;4.70;;;;;;;13.98;34.73;102397.81;6162528;28;20235;-59
2021/03/17 14:49:20;;;;;;;9.00;8.10;;;;;;;14.38;35.35;102376.91;6165942;28;20234;-58
2021/03/17 14:52:41;;;;;;;5.73;3.67;;;;;;;14.26;34.48;102379.50;6162538;28;20242;-60
2021/03/17 14:56:01;;;;;;;4.50;3.03;;;;;;;13.83;34.54;102379.44;6163236;28;20329;-60
2021/03/17 14:59:23;;;;;;;2.57;2.10;;;;;;;13.06;34.81;102371.25;6157766;28;20230;-57
2021/03/17 15:02:44;;;;;;;3.03;2.50;;;;;;;13.14;34.95;102379.16;6159366;28;20230;-57
2021/03/17 15:06:05;;;;;;;2.10;1.90;;;;;;;12.95;35.81;102381.69;6164189;28;20246;-59
2021/03/17 15:09:26;;;;;;;2.42;2.08;;;;;;;12.79;36.58;102385.94;6150399;28;20742;-58
2021/03/17 15:12:47;;;;;;;1.93;1.50;;;;;;;12.41;37.27;102391.75;6159355;28;20497;-58
2021/03/17 15:16:08;;;;;;;1.50;1.40;;;;;;;11.89;38.22;102391.25;6155218;28;20238;-58
2021/03/17 15:19:29;;;;;;;2.87;1.60;;;;;;;11.95;37.27;102393.91;6156818;28;20219;-58
2021/03/17 15:22:50;;;;;;;3.70;1.63;;;;;;;12.05;38.02;102400.09;6160655;28;20219;-58
2021/03/17 15:26:11;;;;;;;2.10;2.00;;;;;;;12.26;38.29;102402.06;6161811;28;20238;-53
2021/03/17 15:29:32;;;;;;;3.17;2.60;;;;;;;12.24;38.06;102398.56;6159060;28;20226;-55
2021/03/17 15:32:53;;;;;;;7.33;2.67;;;;;;;12.48;37.67;102402.25;6156190;28;20242;-56
2021/03/17 15:36:14;;;;;;;1.67;1.57;;;;;;;11.81;37.94;102408.53;6164741;28;20223;-55
2021/03/17 15:39:34;;;;;;;1.77;1.57;;;;;;;12.48;37.05;102402.25;6171892;28;20234;-55
2021/03/17 15:42:54;;;;;;;1.50;1.40;;;;;;;12.59;36.80;102401.47;6170098;28;20365;-55
2021/03/17 15:46:15;;;;;;;1.83;1.73;;;;;;;13.04;36.23;102399.16;6169576;28;20222;-61
2021/03/17 15:49:36;;;;;;;2.87;2.23;;;;;;;13.20;35.12;102403.63;6170851;28;20242;-55
2021/03/17 15:52:56;;;;;;;2.57;2.37;;;;;;;13.40;34.96;102408.09;6163236;28;20510;-56